Terminal Aerodrome Forecast
Issued by NWS Tuscon, AZ

Home | Current Version | Previous Version | Text Only | Print | Product List | Glossary On
Versions: 1 2 3 4 5 6 7 8 9 10 11 12
000
FTUS45 KTWC 021737
TAFDUG
TAF
KDUG 021737Z 0218/0318 VRB04KT P6SM SCT070 SCT200
     FM022000 28009KT P6SM VCTS BKN060CB BKN100
     FM030100 35006KT P6SM SCT080 BKN120
     FM030600 VRB04KT P6SM SCT100 BKN200=

USA.gov is the U.S. government's official web portal to all federal, state and local government web resources and services.